Time;durP1;ratioP1;P1;durP2;ratioP2;P2;SDS_P1;SDS_P2;PMS_P1;PMS_P2;Temp;Humidity;BMP_temperature;BMP_pressure;BME280_temperature;BME280_humidity;BME280_pressure;Samples;Min_cycle;Max_cycle;Signal;HPM_P1;HPM_P2
2023/05/19 00:00:18;;;;;;;12.83;7.17;;;11.30;99.90;;;;;;5079382;28;20182;-74
2023/05/19 00:02:44;;;;;;;13.70;7.77;;;11.30;99.90;;;;;;5090595;28;20181;-73
2023/05/19 00:05:13;;;;;;;11.43;7.30;;;11.30;99.90;;;;;;5073368;28;20803;-74
2023/05/19 00:07:42;;;;;;;13.13;7.43;;;11.30;99.90;;;;;;5088131;28;20173;-74
2023/05/19 00:10:09;;;;;;;14.87;7.87;;;11.30;99.90;;;;;;5079143;28;20177;-74
2023/05/19 00:12:36;;;;;;;18.53;8.73;;;11.20;99.90;;;;;;5070447;28;20181;-74
2023/05/19 00:15:02;;;;;;;9.33;7.70;;;11.20;99.90;;;;;;5095131;28;20743;-74
2023/05/19 00:17:28;;;;;;;16.27;10.03;;;11.20;99.90;;;;;;5081561;28;20191;-74
2023/05/19 00:19:54;;;;;;;11.73;8.50;;;11.10;99.90;;;;;;5093989;28;20568;-74
2023/05/19 00:22:19;;;;;;;12.90;8.67;;;11.20;99.90;;;;;;5106585;28;20184;-74
2023/05/19 00:24:45;;;;;;;12.93;7.18;;;11.10;99.90;;;;;;5086988;28;20188;-74
2023/05/19 00:27:11;;;;;;;15.17;8.63;;;11.20;99.90;;;;;;5115984;28;20190;-73
2023/05/19 00:29:36;;;;;;;12.32;8.13;;;11.20;99.90;;;;;;5109831;28;20180;-74
2023/05/19 00:32:02;;;;;;;17.80;8.50;;;11.20;99.90;;;;;;5090934;28;20192;-74
2023/05/19 00:34:28;;;;;;;18.70;10.47;;;11.20;99.90;;;;;;5087744;28;20208;-74
2023/05/19 00:36:54;;;;;;;11.07;8.07;;;11.10;99.90;;;;;;5116308;28;20188;-74
2023/05/19 00:39:19;;;;;;;12.83;7.73;;;11.10;99.90;;;;;;5107020;28;20290;-74
2023/05/19 00:41:45;;;;;;;12.27;8.20;;;11.10;99.90;;;;;;5115941;28;20180;-74
2023/05/19 00:44:11;;;;;;;15.00;8.80;;;11.00;99.90;;;;;;5115851;28;20222;-74
2023/05/19 00:46:36;;;;;;;11.17;8.53;;;11.10;99.90;;;;;;5097556;28;20188;-74
2023/05/19 00:49:02;;;;;;;14.67;9.50;;;11.00;99.90;;;;;;5106936;28;20186;-74
2023/05/19 00:51:28;;;;;;;17.13;8.90;;;10.90;99.90;;;;;;5115643;28;20663;-74
2023/05/19 00:53:55;;;;;;;12.27;9.20;;;11.00;99.90;;;;;;5111645;28;20298;-75
2023/05/19 00:56:21;;;;;;;13.10;8.70;;;11.00;99.90;;;;;;5096829;28;20209;-74
2023/05/19 00:58:50;;;;;;;12.65;8.48;;;11.10;99.90;;;;;;5097083;28;20636;-74
2023/05/19 01:01:18;;;;;;;15.80;8.67;;;11.10;99.90;;;;;;5109110;28;20172;-75
2023/05/19 01:03:45;;;;;;;18.50;8.03;;;11.00;99.90;;;;;;5097316;28;20650;-75
2023/05/19 01:06:11;;;;;;;9.57;7.90;;;11.00;99.90;;;;;;5115272;28;20228;-74
2023/05/19 01:08:38;;;;;;;12.13;9.37;;;11.00;99.90;;;;;;5111636;28;20271;-74
2023/05/19 01:11:05;;;;;;;17.90;8.43;;;11.00;99.90;;;;;;5088227;28;20188;-75
2023/05/19 01:13:32;;;;;;;13.83;8.23;;;10.90;99.90;;;;;;5113373;28;20211;-74
2023/05/19 01:16:11;;;;;;;14.33;9.10;;;11.00;99.90;;;;;;5102670;28;20196;-72
2023/05/19 01:19:02;;;;;;;13.90;8.23;;;10.90;99.90;;;;;;5094756;28;20218;-72
2023/05/19 01:21:46;;;;;;;12.77;8.07;;;10.80;99.90;;;;;;5088820;28;20526;-74
2023/05/19 01:24:27;;;;;;;18.10;10.20;;;10.80;99.90;;;;;;5114376;28;20179;-75
2023/05/19 01:27:22;;;;;;;13.73;9.47;;;10.70;99.90;;;;;;5114811;28;20707;-74
2023/05/19 01:30:09;;;;;;;13.57;8.83;;;10.60;99.90;;;;;;5112190;28;20168;-75
2023/05/19 01:32:37;;;;;;;13.47;8.47;;;10.60;99.90;;;;;;5114632;28;20236;-75
2023/05/19 01:35:04;;;;;;;20.03;9.73;;;10.60;99.90;;;;;;5096429;28;20196;-75
2023/05/19 01:37:30;;;;;;;13.43;9.00;;;10.50;99.90;;;;;;5103539;28;20217;-74
2023/05/19 01:39:56;;;;;;;10.60;8.03;;;10.50;99.90;;;;;;5102949;28;20697;-73
2023/05/19 01:42:23;;;;;;;12.53;9.77;;;10.50;99.90;;;;;;5067745;28;20188;-73
2023/05/19 01:44:50;;;;;;;17.07;11.10;;;10.40;99.90;;;;;;5115267;28;20229;-73
2023/05/19 01:47:17;;;;;;;19.23;9.67;;;10.40;99.90;;;;;;5083830;28;20193;-74
2023/05/19 01:49:42;;;;;;;13.00;9.93;;;10.40;99.90;;;;;;5082076;28;20265;-73
2023/05/19 01:52:08;;;;;;;14.03;9.07;;;10.40;99.90;;;;;;5088969;28;20264;-73
2023/05/19 01:54:34;;;;;;;15.17;9.40;;;10.40;99.90;;;;;;5080954;28;20680;-73
2023/05/19 01:57:25;;;;;;;14.70;9.03;;;10.30;99.90;;;;;;5105782;28;20691;-73
2023/05/19 02:00:11;;;;;;;14.47;8.63;;;10.30;99.90;;;;;;5114214;28;20202;-73
2023/05/19 02:02:53;;;;;;;18.07;9.67;;;10.30;99.90;;;;;;5114334;28;20175;-73
2023/05/19 02:05:50;;;;;;;15.90;9.60;;;10.40;99.90;;;;;;5112664;28;20172;-73
2023/05/19 02:08:22;;;;;;;13.47;8.73;;;10.30;99.90;;;;;;5100673;28;20192;-73
2023/05/19 02:10:56;;;;;;;16.13;9.70;;;10.10;99.90;;;;;;5082389;28;20185;-73
2023/05/19 02:13:28;;;;;;;18.00;9.43;;;10.00;99.90;;;;;;5089652;28;20243;-73
2023/05/19 02:15:57;;;;;;;16.80;8.07;;;10.10;99.90;;;;;;5098098;28;20180;-73
2023/05/19 02:18:23;;;;;;;21.07;10.43;;;10.10;99.90;;;;;;5109320;28;20220;-73
2023/05/19 02:20:49;;;;;;;17.77;9.23;;;10.00;99.90;;;;;;5078251;28;20186;-73
2023/05/19 02:23:15;;;;;;;14.37;9.80;;;9.90;99.90;;;;;;5086622;28;20274;-73
2023/05/19 02:25:41;;;;;;;12.03;8.67;;;9.80;99.90;;;;;;5075357;28;20181;-74
2023/05/19 02:28:07;;;;;;;18.33;10.57;;;9.80;99.90;;;;;;5104666;28;20262;-74
2023/05/19 02:30:32;;;;;;;15.47;8.87;;;9.90;99.90;;;;;;5087036;28;20283;-73
2023/05/19 02:32:59;;;;;;;17.53;10.77;;;9.80;99.90;;;;;;5095215;28;20180;-74
2023/05/19 02:35:24;;;;;;;19.93;11.77;;;9.80;99.90;;;;;;5111022;28;20709;-74
2023/05/19 02:37:50;;;;;;;18.03;11.33;;;9.80;99.90;;;;;;5104803;28;20184;-74
2023/05/19 02:40:17;;;;;;;23.80;12.47;;;9.70;99.90;;;;;;5113688;28;20187;-74
2023/05/19 02:42:43;;;;;;;17.17;11.47;;;9.70;99.90;;;;;;5112720;28;20175;-74
2023/05/19 02:45:09;;;;;;;15.13;9.57;;;9.60;99.90;;;;;;5095940;28;20191;-73
2023/05/19 02:47:35;;;;;;;22.13;10.47;;;9.50;99.90;;;;;;5078353;28;20214;-74
2023/05/19 02:50:00;;;;;;;18.10;10.27;;;9.40;99.90;;;;;;5113442;28;20184;-74
2023/05/19 02:52:26;;;;;;;18.00;10.97;;;9.40;99.90;;;;;;5078345;28;20598;-74
2023/05/19 02:54:52;;;;;;;17.57;9.57;;;9.30;99.90;;;;;;5113312;28;20204;-73
2023/05/19 02:57:17;;;;;;;18.20;10.10;;;9.30;99.90;;;;;;5113396;28;20584;-74
2023/05/19 02:59:43;;;;;;;16.90;10.33;;;9.40;99.90;;;;;;5084686;28;20620;-74
2023/05/19 03:02:09;;;;;;;18.37;10.20;;;9.40;99.90;;;;;;5099060;28;20192;-74
2023/05/19 03:04:40;;;;;;;19.83;11.40;;;9.40;99.90;;;;;;5112159;28;20191;-74
2023/05/19 03:07:06;;;;;;;17.47;11.73;;;9.50;99.90;;;;;;5113080;28;20626;-74
2023/05/19 03:09:32;;;;;;;18.37;11.47;;;9.40;99.90;;;;;;5113166;28;20210;-73
2023/05/19 03:12:02;;;;;;;18.73;11.93;;;9.40;99.90;;;;;;5112505;28;20211;-73
2023/05/19 03:14:28;;;;;;;19.93;10.83;;;9.30;99.90;;;;;;5113169;28;20203;-74
2023/05/19 03:16:54;;;;;;;20.83;12.00;;;9.30;99.90;;;;;;5100722;28;20561;-74
2023/05/19 03:19:20;;;;;;;24.23;11.27;;;9.20;99.90;;;;;;5102920;28;20227;-73
2023/05/19 03:21:46;;;;;;;17.17;10.33;;;9.20;99.90;;;;;;5077698;28;20228;-73
2023/05/19 03:24:12;;;;;;;15.07;9.87;;;9.10;99.90;;;;;;5095011;28;20897;-73
2023/05/19 03:26:38;;;;;;;18.90;9.93;;;9.10;99.90;;;;;;5113042;28;20205;-73
2023/05/19 03:29:03;;;;;;;14.67;9.57;;;9.00;99.90;;;;;;5112232;28;20187;-73
2023/05/19 03:31:30;;;;;;;16.83;10.83;;;9.00;99.90;;;;;;5103410;28;20227;-74
2023/05/19 03:33:58;;;;;;;20.20;9.23;;;9.10;99.90;;;;;;5084911;28;20238;-73
2023/05/19 03:36:25;;;;;;;17.97;9.80;;;9.00;99.90;;;;;;5083049;28;20180;-74
2023/05/19 03:38:50;;;;;;;15.37;9.50;;;9.00;99.90;;;;;;5102594;28;20224;-73
2023/05/19 03:41:16;;;;;;;15.07;9.03;;;9.00;99.90;;;;;;5086780;28;20191;-73
2023/05/19 03:43:42;;;;;;;15.03;10.07;;;8.90;99.90;;;;;;5087598;28;20526;-73
2023/05/19 03:46:07;;;;;;;22.90;11.17;;;9.00;99.90;;;;;;5101493;28;20775;-73
2023/05/19 03:48:33;;;;;;;18.17;9.67;;;8.90;99.90;;;;;;5109293;28;20284;-74
2023/05/19 03:50:58;;;;;;;16.57;10.27;;;8.90;99.90;;;;;;5113514;28;20622;-74
2023/05/19 03:53:25;;;;;;;18.73;9.70;;;8.90;99.90;;;;;;5078748;28;20224;-74
2023/05/19 03:55:50;;;;;;;19.17;10.43;;;9.00;99.90;;;;;;5091450;28;20210;-74
2023/05/19 03:58:16;;;;;;;26.23;10.00;;;9.10;99.90;;;;;;5098098;28;20511;-74
2023/05/19 04:00:42;;;;;;;15.83;9.97;;;9.10;99.90;;;;;;5087379;28;20600;-74
2023/05/19 04:03:07;;;;;;;14.53;9.93;;;9.10;99.90;;;;;;5081173;28;20184;-75
2023/05/19 04:05:33;;;;;;;17.37;9.27;;;9.10;99.90;;;;;;5116412;28;20508;-76
2023/05/19 04:07:59;;;;;;;15.33;10.87;;;9.10;99.90;;;;;;5108735;28;20242;-72
2023/05/19 04:10:24;;;;;;;17.30;9.73;;;9.10;99.90;;;;;;5108242;28;20180;-70
2023/05/19 04:12:50;;;;;;;15.33;10.63;;;9.20;99.90;;;;;;5115631;28;20695;-74
2023/05/19 04:15:16;;;;;;;14.97;8.20;;;9.30;99.90;;;;;;5116225;28;20223;-74
2023/05/19 04:17:42;;;;;;;15.23;10.13;;;9.30;99.90;;;;;;5097730;28;20656;-73
2023/05/19 04:20:08;;;;;;;20.43;9.63;;;9.40;99.90;;;;;;5113082;28;20549;-71
2023/05/19 04:22:34;;;;;;;16.60;9.30;;;9.20;99.90;;;;;;5073193;28;20898;-73
2023/05/19 04:25:00;;;;;;;14.40;9.23;;;9.20;99.90;;;;;;5092229;28;20195;-73
2023/05/19 04:27:27;;;;;;;19.90;10.23;;;9.30;99.90;;;;;;5116082;28;20500;-74
2023/05/19 04:29:53;;;;;;;17.97;11.07;;;9.30;99.90;;;;;;5081544;28;20176;-72
2023/05/19 04:32:19;;;;;;;21.50;10.60;;;9.40;99.90;;;;;;5115170;28;20183;-70
2023/05/19 04:34:45;;;;;;;14.27;9.07;;;9.40;99.90;;;;;;5115411;28;20200;-72
2023/05/19 04:37:17;;;;;;;18.77;9.57;;;9.50;99.90;;;;;;5097118;28;20188;-73
2023/05/19 04:39:44;;;;;;;16.67;9.50;;;9.60;99.90;;;;;;5097311;28;20527;-73
2023/05/19 04:42:10;;;;;;;17.57;10.27;;;9.70;99.90;;;;;;5097083;28;20204;-73
2023/05/19 04:44:38;;;;;;;14.20;10.00;;;9.70;99.90;;;;;;5115735;28;20270;-73
2023/05/19 04:47:05;;;;;;;16.10;9.87;;;9.80;99.90;;;;;;5110107;28;20234;-73
2023/05/19 04:49:31;;;;;;;18.63;9.87;;;9.80;99.90;;;;;;5115471;28;20514;-73
2023/05/19 04:51:57;;;;;;;17.73;10.07;;;9.70;99.90;;;;;;5115718;28;20191;-73
2023/05/19 04:54:23;;;;;;;17.43;9.40;;;9.70;99.90;;;;;;5110725;28;20249;-73
2023/05/19 04:56:48;;;;;;;16.00;9.17;;;9.90;99.90;;;;;;5083839;28;20195;-70
2023/05/19 04:59:14;;;;;;;16.60;9.57;;;9.90;99.90;;;;;;5115492;28;20616;-71
2023/05/19 05:01:41;;;;;;;20.23;10.63;;;9.80;99.90;;;;;;5114689;28;20620;-71
2023/05/19 05:04:07;;;;;;;14.10;9.60;;;9.70;99.90;;;;;;5088889;28;20740;-71
2023/05/19 05:06:33;;;;;;;19.23;9.43;;;9.70;99.90;;;;;;5115266;28;20271;-74
2023/05/19 05:09:00;;;;;;;15.23;9.33;;;9.70;99.90;;;;;;5094810;28;20184;-71
2023/05/19 05:11:25;;;;;;;15.23;10.03;;;9.90;99.90;;;;;;5111068;28;20266;-72
2023/05/19 05:13:51;;;;;;;13.77;8.63;;;10.00;99.90;;;;;;5096205;28;20632;-73
2023/05/19 05:16:17;;;;;;;18.63;10.50;;;9.90;99.90;;;;;;5114875;28;20187;-72
2023/05/19 05:18:45;;;;;;;22.53;10.93;;;10.00;99.90;;;;;;5095662;28;20244;-73
2023/05/19 05:21:11;;;;;;;19.63;9.70;;;10.20;99.90;;;;;;5080478;28;20183;-74
2023/05/19 05:23:37;;;;;;;17.60;9.77;;;10.20;99.90;;;;;;5097127;28;20180;-73
2023/05/19 05:26:15;;;;;;;19.57;10.70;;;10.10;99.90;;;;;;5114708;28;20180;-73
2023/05/19 05:28:41;;;;;;;19.60;9.57;;;10.30;99.90;;;;;;5112032;28;20164;-73
2023/05/19 05:31:06;;;;;;;13.07;8.87;;;10.60;99.90;;;;;;5114324;28;20654;-73
2023/05/19 05:33:32;;;;;;;17.13;9.87;;;10.70;99.90;;;;;;5096351;28;20207;-74
2023/05/19 05:35:58;;;;;;;18.70;9.13;;;10.70;99.90;;;;;;5114619;28;20513;-72
2023/05/19 05:38:23;;;;;;;19.87;10.23;;;10.80;99.90;;;;;;5114254;28;20208;-74
2023/05/19 05:40:49;;;;;;;14.10;9.63;;;10.50;99.90;;;;;;5091837;28;20214;-73
2023/05/19 05:43:15;;;;;;;13.50;8.73;;;10.30;99.90;;;;;;5114545;28;20184;-74
2023/05/19 05:45:40;;;;;;;13.60;9.10;;;10.40;99.90;;;;;;5095517;28;20196;-73
2023/05/19 05:48:06;;;;;;;17.27;10.07;;;10.70;99.90;;;;;;5079418;28;20188;-73
2023/05/19 05:50:32;;;;;;;19.20;9.93;;;10.50;99.90;;;;;;5094253;28;20183;-74
2023/05/19 05:53:01;;;;;;;17.47;10.13;;;10.30;99.90;;;;;;5088310;28;20633;-73
2023/05/19 05:55:27;;;;;;;17.40;11.33;;;10.40;99.90;;;;;;5095749;28;20231;-75
2023/05/19 05:57:53;;;;;;;18.37;9.67;;;10.50;99.90;;;;;;5093054;28;20190;-74
2023/05/19 06:00:20;;;;;;;13.77;9.50;;;10.50;99.90;;;;;;5096882;28;20208;-73
2023/05/19 06:02:48;;;;;;;13.20;10.10;;;10.70;99.90;;;;;;5111032;28;20186;-74
2023/05/19 06:05:13;;;;;;;15.10;9.80;;;10.90;99.90;;;;;;5100145;28;20183;-74
2023/05/19 06:07:39;;;;;;;18.07;9.93;;;10.70;99.90;;;;;;5104106;28;20268;-73
2023/05/19 06:10:06;;;;;;;15.97;9.70;;;10.60;99.90;;;;;;5091631;28;20176;-72
2023/05/19 06:12:32;;;;;;;18.30;9.47;;;10.50;99.90;;;;;;5076490;28;20181;-73
2023/05/19 06:14:57;;;;;;;15.07;9.80;;;10.70;99.90;;;;;;5112804;28;20226;-74
2023/05/19 06:17:23;;;;;;;16.13;9.13;;;10.90;99.90;;;;;;5113730;28;20569;-72
2023/05/19 06:19:49;;;;;;;16.63;10.43;;;11.00;99.90;;;;;;5091831;28;20553;-72
2023/05/19 06:22:14;;;;;;;17.47;9.83;;;10.90;99.90;;;;;;5109563;28;20180;-73
2023/05/19 06:24:40;;;;;;;15.23;10.80;;;11.10;99.90;;;;;;5082931;28;20667;-74
2023/05/19 06:27:06;;;;;;;19.37;10.40;;;11.20;99.90;;;;;;5110251;28;20192;-74
2023/05/19 06:29:31;;;;;;;25.47;11.77;;;11.10;99.90;;;;;;5095277;28;20267;-74
2023/05/19 06:31:57;;;;;;;17.05;9.00;;;11.30;99.90;;;;;;5106555;28;20184;-73
2023/05/19 06:34:23;;;;;;;20.50;9.85;;;11.40;99.90;;;;;;5105287;28;20213;-73
2023/05/19 06:36:49;;;;;;;12.07;9.32;;;11.50;99.90;;;;;;5088779;28;20329;-73
2023/05/19 06:39:14;;;;;;;19.48;10.27;;;11.30;99.90;;;;;;5094387;28;20188;-73
2023/05/19 06:41:40;;;;;;;16.23;10.02;;;11.40;99.90;;;;;;5113344;28;20191;-73
2023/05/19 06:44:09;;;;;;;21.33;9.20;;;11.70;99.90;;;;;;5113209;28;20263;-73
2023/05/19 06:46:35;;;;;;;17.58;9.95;;;11.70;99.90;;;;;;5113245;28;20660;-74
2023/05/19 06:49:01;;;;;;;16.30;9.52;;;11.90;99.90;;;;;;5104265;28;20258;-74
2023/05/19 06:51:26;;;;;;;15.80;8.85;;;11.80;99.90;;;;;;5101648;28;20565;-73
2023/05/19 06:53:52;;;;;;;13.00;8.88;;;11.80;99.90;;;;;;5113120;28;20207;-74
2023/05/19 06:56:18;;;;;;;13.65;10.18;;;12.00;99.90;;;;;;5093603;28;20229;-73
2023/05/19 06:58:44;;;;;;;15.95;9.98;;;12.40;99.90;;;;;;5113123;28;20187;-72
2023/05/19 07:01:10;;;;;;;13.20;9.57;;;12.40;99.90;;;;;;5081309;28;20246;-73
2023/05/19 07:03:36;;;;;;;13.93;10.25;;;12.50;99.90;;;;;;5106550;28;20180;-73
2023/05/19 07:06:01;;;;;;;14.95;10.13;;;12.70;99.90;;;;;;5089777;28;20520;-74
2023/05/19 07:08:27;;;;;;;11.57;8.75;;;12.60;99.90;;;;;;5112805;28;20184;-74
2023/05/19 07:10:54;;;;;;;12.80;9.27;;;12.70;99.90;;;;;;5113034;28;20527;-75
2023/05/19 07:13:20;;;;;;;15.90;8.18;;;12.80;99.90;;;;;;5112457;28;20184;-74
2023/05/19 07:15:47;;;;;;;12.70;8.68;;;13.60;99.90;;;;;;5104579;28;20563;-73
2023/05/19 07:18:14;;;;;;;13.27;8.50;;;15.70;99.90;;;;;;5091849;28;20184;-73
2023/05/19 07:20:40;;;;;;;12.50;8.45;;;17.70;99.90;;;;;;5089174;28;20566;-73
2023/05/19 07:23:05;;;;;;;10.82;6.88;;;19.20;99.90;;;;;;5087629;28;20621;-73
2023/05/19 07:25:32;;;;;;;11.55;6.88;;;21.50;99.90;;;;;;5094456;28;20258;-73
2023/05/19 07:27:58;;;;;;;9.57;7.22;;;22.40;99.90;;;;;;5112889;28;20249;-75
2023/05/19 07:30:25;;;;;;;10.38;7.47;;;22.10;99.90;;;;;;5088740;28;20628;-74
2023/05/19 07:32:51;;;;;;;8.43;7.00;;;22.30;99.90;;;;;;5112893;28;20176;-74
2023/05/19 07:35:16;;;;;;;12.07;6.80;;;22.90;99.90;;;;;;5094422;28;20222;-74
2023/05/19 07:37:42;;;;;;;8.82;6.78;;;23.60;99.90;;;;;;5113241;28;20180;-74
2023/05/19 07:40:08;;;;;;;9.73;6.28;;;23.60;99.90;;;;;;5112566;28;20176;-73
2023/05/19 07:42:34;;;;;;;8.52;6.80;;;23.90;99.90;;;;;;5112782;28;20677;-77
2023/05/19 07:45:01;;;;;;;12.57;6.88;;;24.50;99.90;;;;;;5105819;28;20191;-75
2023/05/19 07:47:29;;;;;;;9.35;6.25;;;25.60;99.90;;;;;;5112578;28;20187;-75
2023/05/19 07:49:55;;;;;;;9.00;6.70;;;26.20;99.90;;;;;;5113342;28;20619;-75
2023/05/19 07:52:20;;;;;;;7.10;6.40;;;26.60;99.90;;;;;;5111009;28;20183;-76
2023/05/19 07:54:46;;;;;;;6.43;5.82;;;27.70;99.90;;;;;;5097177;28;20287;-76
2023/05/19 07:57:13;;;;;;;10.20;6.00;;;28.20;99.90;;;;;;5106343;28;20657;-75
2023/05/19 07:59:39;;;;;;;8.02;6.05;;;27.60;99.90;;;;;;5104036;28;20183;-76
2023/05/19 08:02:05;;;;;;;11.95;7.55;;;26.70;99.90;;;;;;5112162;28;20176;-76
2023/05/19 08:04:30;;;;;;;8.88;6.30;;;26.70;99.90;;;;;;5112737;28;20530;-75
2023/05/19 08:06:56;;;;;;;8.73;6.13;;;27.00;99.90;;;;;;5075684;28;20211;-75
2023/05/19 08:09:22;;;;;;;8.30;6.72;;;25.40;99.90;;;;;;5076050;28;20180;-74
2023/05/19 08:11:48;;;;;;;12.68;5.80;;;25.30;99.90;;;;;;5106285;28;20176;-75
2023/05/19 08:14:14;;;;;;;13.05;6.15;;;25.60;99.90;;;;;;5107044;28;20214;-76
2023/05/19 08:16:41;;;;;;;10.07;6.60;;;25.80;99.90;;;;;;5110475;28;20540;-77
2023/05/19 08:19:07;;;;;;;6.80;5.75;;;26.70;99.90;;;;;;5104374;28;20223;-75
2023/05/19 08:21:33;;;;;;;13.48;5.40;;;27.40;99.90;;;;;;5098070;28;20270;-76
2023/05/19 08:24:02;;;;;;;8.82;4.75;;;27.70;99.90;;;;;;5116292;28;20309;-75
2023/05/19 08:26:28;;;;;;;10.13;5.88;;;27.90;99.90;;;;;;5103253;28;20266;-75
2023/05/19 08:28:54;;;;;;;14.48;5.30;;;28.90;99.90;;;;;;5114851;28;20260;-76
2023/05/19 08:31:19;;;;;;;7.22;4.60;;;29.20;99.90;;;;;;5094353;28;20233;-77
2023/05/19 08:33:45;;;;;;;7.78;6.38;;;29.60;99.90;;;;;;5096294;28;20202;-76
2023/05/19 08:36:11;;;;;;;6.15;5.55;;;29.60;99.90;;;;;;5116151;28;20712;-75
2023/05/19 08:38:36;;;;;;;7.15;5.45;;;28.30;99.90;;;;;;5115830;28;20712;-75
2023/05/19 08:41:02;;;;;;;4.85;4.40;;;27.40;99.90;;;;;;5090780;28;20207;-75
2023/05/19 08:43:28;;;;;;;8.57;4.53;;;28.30;99.90;;;;;;5114645;28;20171;-76
2023/05/19 08:45:54;;;;;;;8.63;4.90;;;29.40;99.90;;;;;;5115629;28;20187;-76
2023/05/19 08:48:21;;;;;;;6.30;4.38;;;29.80;99.90;;;;;;5096715;28;20194;-77
2023/05/19 08:51:15;;;;;;;6.35;4.97;;;28.50;99.90;;;;;;5115347;28;20191;-74
2023/05/19 08:53:47;;;;;;;5.68;4.43;;;28.80;99.90;;;;;;5108587;28;20234;-76
2023/05/19 08:56:20;;;;;;;8.63;4.82;;;28.80;99.90;;;;;;5104838;28;20233;-75
2023/05/19 08:58:48;;;;;;;6.15;3.95;;;28.20;99.90;;;;;;5115816;28;20206;-77
2023/05/19 09:01:15;;;;;;;9.15;5.00;;;28.00;99.90;;;;;;5096562;28;20190;-75
2023/05/19 09:03:42;;;;;;;5.90;4.15;;;27.60;99.90;;;;;;5108295;28;20203;-76
2023/05/19 09:06:11;;;;;;;5.53;5.03;;;26.90;99.90;;;;;;5110126;28;20560;-75
2023/05/19 09:08:37;;;;;;;5.93;5.15;;;27.20;99.90;;;;;;5115264;28;20167;-76
2023/05/19 09:11:03;;;;;;;7.85;5.18;;;28.00;99.90;;;;;;5115923;28;20179;-77
2023/05/19 09:13:29;;;;;;;11.70;5.40;;;29.00;99.90;;;;;;5093181;28;20593;-75
2023/05/19 09:15:58;;;;;;;8.30;5.60;;;27.90;99.90;;;;;;5113839;28;20593;-76
2023/05/19 09:18:25;;;;;;;6.28;5.00;;;26.40;99.90;;;;;;5114739;28;20231;-77
2023/05/19 09:20:59;;;;;;;4.70;4.20;;;26.80;99.90;;;;;;5088637;28;20702;-75
2023/05/19 09:23:30;;;;;;;8.32;4.90;;;26.40;99.90;;;;;;5109965;28;20171;-77
2023/05/19 09:25:56;;;;;;;6.43;3.92;;;25.20;99.90;;;;;;5080614;28;20623;-73
2023/05/19 09:28:28;;;;;;;4.50;3.92;;;23.70;99.90;;;;;;5114910;28;20722;-76
2023/05/19 09:31:07;;;;;;;6.20;5.05;;;21.30;99.90;;;;;;5096580;28;20176;-74
2023/05/19 09:33:35;;;;;;;6.90;3.70;;;20.20;99.90;;;;;;5114537;28;20296;-75
2023/05/19 09:36:02;;;;;;;7.10;4.15;;;19.90;99.90;;;;;;5114273;28;20246;-73
2023/05/19 09:38:28;;;;;;;7.55;3.75;;;19.50;99.90;;;;;;5114319;28;20251;-73
2023/05/19 09:40:58;;;;;;;7.05;3.85;;;19.10;99.90;;;;;;5104081;28;20219;-76
2023/05/19 09:43:27;;;;;;;4.38;4.07;;;18.90;99.90;;;;;;5111453;28;20589;-73
2023/05/19 09:46:00;;;;;;;6.53;3.92;;;18.80;99.90;;;;;;5099746;28;20176;-74
2023/05/19 09:48:26;;;;;;;5.85;4.53;;;18.60;99.90;;;;;;5078440;28;20181;-74
2023/05/19 09:50:53;;;;;;;5.80;4.57;;;18.70;99.90;;;;;;5109782;28;20191;-75
2023/05/19 09:53:20;;;;;;;5.60;3.95;;;18.70;99.90;;;;;;5103872;28;20259;-72
2023/05/19 09:55:47;;;;;;;7.20;3.63;;;18.80;99.90;;;;;;5114206;28;20184;-72
2023/05/19 09:58:17;;;;;;;10.23;3.97;;;19.00;99.90;;;;;;5109898;28;20210;-72
2023/05/19 10:00:44;;;;;;;4.97;3.10;;;18.80;99.90;;;;;;5095546;28;20180;-74
2023/05/19 10:03:10;;;;;;;7.05;3.47;;;18.40;99.90;;;;;;5089594;28;20185;-73
2023/05/19 10:05:37;;;;;;;8.02;4.30;;;18.20;99.90;;;;;;5107178;28;20645;-72
2023/05/19 10:08:06;;;;;;;4.20;3.72;;;18.10;99.90;;;;;;5112758;28;20692;-73
2023/05/19 10:10:32;;;;;;;5.85;3.75;;;18.40;99.90;;;;;;5098237;28;20180;-74
2023/05/19 10:12:59;;;;;;;3.83;3.45;;;18.50;99.90;;;;;;5107710;28;20184;-75
2023/05/19 10:15:26;;;;;;;4.32;3.20;;;18.30;99.90;;;;;;5107945;28;20226;-74
2023/05/19 10:17:51;;;;;;;5.05;3.28;;;18.60;99.90;;;;;;5087005;28;20249;-73
2023/05/19 10:20:17;;;;;;;4.45;3.42;;;19.00;99.90;;;;;;5099498;28;20612;-74
2023/05/19 10:22:45;;;;;;;5.38;3.13;;;19.40;99.90;;;;;;5095123;28;20205;-76
2023/05/19 10:25:13;;;;;;;3.00;2.75;;;19.50;99.90;;;;;;5113163;28;20188;-73
2023/05/19 10:27:50;;;;;;;8.48;3.92;;;19.50;99.90;;;;;;5084344;28;20598;-74
2023/05/19 10:30:43;;;;;;;4.60;3.03;;;19.40;99.90;;;;;;5111143;28;20299;-73
2023/05/19 10:33:13;;;;;;;6.90;3.20;;;19.50;99.90;;;;;;5110888;28;20176;-73
2023/05/19 10:36:07;;;;;;;4.57;3.45;;;19.10;99.90;;;;;;5112844;28;20283;-75
2023/05/19 10:38:49;;;;;;;3.10;2.60;;;19.00;99.90;;;;;;5077963;28;20185;-76
2023/05/19 10:41:40;;;;;;;4.25;2.97;;;19.30;99.90;;;;;;5103782;28;20197;-72
2023/05/19 10:44:12;;;;;;;4.18;3.75;;;19.50;99.90;;;;;;5109951;28;20172;-73
2023/05/19 10:46:40;;;;;;;7.50;3.60;;;19.30;99.90;;;;;;5095034;28;20522;-74
2023/05/19 10:49:07;;;;;;;6.88;4.10;;;19.40;99.90;;;;;;5113424;28;20176;-74
2023/05/19 10:51:34;;;;;;;6.70;4.65;;;19.60;99.90;;;;;;5090784;28;20255;-75
2023/05/19 10:54:11;;;;;;;4.47;3.80;;;20.00;99.90;;;;;;5094769;28;20557;-72
2023/05/19 10:56:41;;;;;;;7.15;5.00;;;19.90;99.90;;;;;;5104244;28;20602;-73
2023/05/19 10:59:06;;;;;;;8.48;4.10;;;19.90;99.90;;;;;;5104934;28;20618;-73
2023/05/19 11:01:37;;;;;;;4.50;4.03;;;20.30;99.90;;;;;;5109211;28;20210;-74
2023/05/19 11:04:10;;;;;;;9.68;5.20;;;20.60;99.90;;;;;;5103261;28;20179;-73
2023/05/19 11:06:37;;;;;;;5.40;4.20;;;20.00;99.90;;;;;;5090788;28;20271;-73
2023/05/19 11:09:14;;;;;;;5.55;4.70;;;19.90;99.90;;;;;;5102429;28;20184;-73
2023/05/19 11:11:50;;;;;;;7.28;4.95;;;19.80;99.90;;;;;;5112992;28;20215;-73
2023/05/19 11:14:30;;;;;;;6.82;4.00;;;19.60;99.90;;;;;;5112429;28;20199;-74
2023/05/19 11:16:57;;;;;;;6.45;4.07;;;19.60;99.90;;;;;;5111084;28;20259;-73
2023/05/19 11:19:28;;;;;;;6.80;5.03;;;19.60;99.90;;;;;;5105446;28;20215;-76
2023/05/19 11:21:54;;;;;;;6.07;4.18;;;19.40;99.90;;;;;;5106830;28;20179;-74
2023/05/19 11:24:41;;;;;;;5.75;4.65;;;19.10;99.90;;;;;;5112991;28;20571;-76
2023/05/19 11:27:32;;;;;;;4.43;4.13;;;19.40;99.90;;;;;;5108910;28;20177;-75
2023/05/19 11:30:05;;;;;;;6.18;4.05;;;19.70;99.90;;;;;;5112739;28;20182;-74
2023/05/19 11:32:37;;;;;;;8.70;4.88;;;19.70;99.90;;;;;;5093896;28;20180;-74
2023/05/19 11:35:04;;;;;;;7.50;4.45;;;19.70;99.90;;;;;;5113015;28;20248;-76
2023/05/19 11:37:33;;;;;;;7.95;4.78;;;19.40;99.90;;;;;;5077816;28;20180;-74
2023/05/19 11:40:08;;;;;;;7.65;5.00;;;19.80;99.90;;;;;;5112880;28;20191;-75
2023/05/19 11:42:35;;;;;;;5.35;4.75;;;19.80;99.90;;;;;;5111910;28;20171;-74
2023/05/19 11:45:02;;;;;;;5.43;4.93;;;19.50;99.90;;;;;;5112344;28;20245;-74
2023/05/19 11:47:29;;;;;;;6.38;4.85;;;19.10;99.90;;;;;;5112447;28;20183;-73
2023/05/19 11:49:55;;;;;;;6.20;4.65;;;19.10;99.90;;;;;;5112826;28;20175;-74
2023/05/19 11:52:29;;;;;;;4.32;3.92;;;19.20;99.90;;;;;;5094888;28;20184;-75
2023/05/19 11:54:59;;;;;;;5.50;5.00;;;19.10;99.90;;;;;;5107187;28;20295;-74
2023/05/19 11:57:25;;;;;;;5.47;4.97;;;19.50;99.90;;;;;;5112469;28;20176;-73
2023/05/19 11:59:52;;;;;;;9.18;4.43;;;19.70;99.90;;;;;;5116565;28;20179;-74
2023/05/19 12:02:19;;;;;;;4.60;4.22;;;19.90;99.90;;;;;;5099225;28;20187;-71
2023/05/19 12:04:46;;;;;;;8.75;5.22;;;20.20;99.90;;;;;;5115698;28;20701;-73
2023/05/19 12:07:12;;;;;;;5.85;4.00;;;19.90;99.90;;;;;;5108771;28;20663;-75
2023/05/19 12:09:38;;;;;;;4.78;4.22;;;19.80;99.90;;;;;;5116087;28;20613;-75
2023/05/19 12:12:04;;;;;;;5.60;4.32;;;19.30;99.90;;;;;;5116543;28;20287;-74
2023/05/19 12:14:30;;;;;;;4.43;4.10;;;19.20;99.90;;;;;;5103673;28;20763;-73
2023/05/19 12:16:56;;;;;;;8.20;3.58;;;19.30;99.90;;;;;;5110900;28;20219;-74
2023/05/19 12:19:24;;;;;;;5.65;4.28;;;19.20;99.90;;;;;;5114255;28;20311;-73
2023/05/19 12:21:53;;;;;;;8.35;3.35;;;19.30;99.90;;;;;;5113468;28;20192;-71
2023/05/19 12:24:20;;;;;;;8.43;4.00;;;19.30;99.90;;;;;;5105118;28;20225;-74
2023/05/19 12:26:49;;;;;;;4.22;3.83;;;19.30;99.90;;;;;;5116044;28;20232;-74
2023/05/19 12:29:14;;;;;;;4.70;4.25;;;19.20;99.90;;;;;;5115864;28;20480;-73
2023/05/19 12:31:40;;;;;;;3.60;3.30;;;19.20;99.90;;;;;;5116135;28;20183;-73
2023/05/19 12:34:06;;;;;;;4.57;3.72;;;19.20;99.90;;;;;;5091755;28;20217;-73
2023/05/19 12:36:31;;;;;;;5.38;4.55;;;19.40;99.90;;;;;;5102784;28;20636;-74
2023/05/19 12:38:57;;;;;;;6.57;3.58;;;19.50;99.90;;;;;;5116324;28;20683;-73
2023/05/19 12:41:25;;;;;;;3.78;3.47;;;19.70;99.90;;;;;;5115424;28;20184;-72
2023/05/19 12:43:52;;;;;;;6.15;3.22;;;20.10;99.90;;;;;;5097535;28;20558;-71